createdAt,value
2023-04-16T00:00:58.288Z,97241.06
2023-04-16T00:03:25.132Z,97237.38
2023-04-16T00:05:51.717Z,97229.59
2023-04-16T00:08:18.042Z,97242.38
2023-04-16T00:10:44.415Z,97249.59
2023-04-16T00:13:10.774Z,97248.00
2023-04-16T00:15:37.152Z,97251.13
2023-04-16T00:18:03.608Z,97248.56
2023-04-16T00:20:29.977Z,97230.25
2023-04-16T00:22:56.306Z,97230.25
2023-04-16T00:25:22.740Z,97233.13
2023-04-16T00:27:49.078Z,97228.81
2023-04-16T00:30:15.731Z,97240.03
2023-04-16T00:32:42.157Z,97239.53
2023-04-16T00:35:08.724Z,97244.47
2023-04-16T00:37:35.209Z,97227.78
2023-04-16T00:40:01.728Z,97231.56
2023-04-16T00:42:28.130Z,97240.34
2023-04-16T00:44:54.505Z,97246.56
2023-04-16T00:47:21.728Z,97244.25
2023-04-16T00:49:48.727Z,97244.53
2023-04-16T00:52:15.365Z,97231.63
2023-04-16T00:54:41.905Z,97236.38
2023-04-16T00:57:08.944Z,97236.25
2023-04-16T00:59:35.328Z,97241.97
2023-04-16T01:02:01.785Z,97247.41
2023-04-16T01:04:30.893Z,97246.34
2023-04-16T01:06:57.508Z,97237.88
2023-04-16T01:09:23.845Z,97233.50
2023-04-16T01:11:50.202Z,97239.91
2023-04-16T01:14:16.570Z,97236.13
2023-04-16T01:16:42.967Z,97240.25
2023-04-16T01:19:09.433Z,97251.28
2023-04-16T01:21:36.076Z,97238.44
2023-04-16T01:24:06.521Z,97251.50
2023-04-16T01:26:33.137Z,97265.69
2023-04-16T01:29:00.354Z,97255.91
2023-04-16T01:31:26.816Z,97255.91
2023-04-16T01:33:53.204Z,97255.66
2023-04-16T01:36:19.648Z,97257.78
2023-04-16T01:38:46.269Z,97250.63
2023-04-16T01:41:12.650Z,97263.16
2023-04-16T01:43:40.321Z,97249.09
2023-04-16T01:46:24.685Z,97266.78
2023-04-16T01:48:54.583Z,97263.00
2023-04-16T01:51:21.843Z,97260.94
2023-04-16T01:53:49.642Z,97267.06
2023-04-16T01:56:16.211Z,97258.72
2023-04-16T01:58:42.832Z,97272.78
2023-04-16T02:01:09.945Z,97262.44
2023-04-16T02:03:36.470Z,97264.84
2023-04-16T02:06:03.174Z,97262.25
2023-04-16T02:08:29.566Z,97257.81
2023-04-16T02:10:57.258Z,97266.09
2023-04-16T02:13:25.518Z,97258.16
2023-04-16T02:15:52.390Z,97276.69
2023-04-16T02:18:18.929Z,97283.13
2023-04-16T02:20:47.004Z,97276.13
2023-04-16T02:23:15.042Z,97266.91
2023-04-16T02:25:42.902Z,97282.56
2023-04-16T02:28:10.625Z,97276.69
2023-04-16T02:30:38.114Z,97292.97
2023-04-16T02:33:05.661Z,97289.78
2023-04-16T02:35:35.119Z,97274.09
2023-04-16T02:38:02.177Z,97282.84
2023-04-16T02:40:28.672Z,97289.78
2023-04-16T02:42:55.574Z,97268.69
2023-04-16T02:45:22.293Z,97290.25
2023-04-16T02:47:49.730Z,97287.44
2023-04-16T02:50:16.635Z,97274.09
2023-04-16T02:52:43.151Z,97270.00
2023-04-16T02:55:10.357Z,97287.75
2023-04-16T02:57:36.882Z,97295.50
2023-04-16T03:00:05.015Z,97281.63
2023-04-16T03:02:31.812Z,97280.81
2023-04-16T03:04:58.275Z,97278.28
2023-04-16T03:07:24.705Z,97288.03
2023-04-16T03:09:51.053Z,97285.81
2023-04-16T03:12:17.577Z,97271.09
2023-04-16T03:14:43.945Z,97278.00
2023-04-16T03:17:10.698Z,97274.03
2023-04-16T03:19:37.193Z,97287.38
2023-04-16T03:22:03.557Z,97282.81
2023-04-16T03:24:30.000Z,97277.94
2023-04-16T03:26:57.802Z,97276.38
2023-04-16T03:29:24.243Z,97283.34
2023-04-16T03:31:50.609Z,97280.88
2023-04-16T03:34:16.994Z,97285.97
2023-04-16T03:36:43.361Z,97280.75
2023-04-16T03:39:09.880Z,97287.50
2023-04-16T03:41:36.461Z,97285.69
2023-04-16T03:44:02.866Z,97284.91
2023-04-16T03:46:29.348Z,97287.00
2023-04-16T03:48:55.929Z,97286.97
2023-04-16T03:51:22.273Z,97281.03
2023-04-16T03:53:48.630Z,97275.91
2023-04-16T03:56:14.984Z,97295.50
2023-04-16T03:58:41.348Z,97303.72
2023-04-16T04:01:07.707Z,97299.16
2023-04-16T04:03:34.309Z,97292.41
2023-04-16T04:06:00.841Z,97304.84
2023-04-16T04:08:27.262Z,97290.88
2023-04-16T04:10:53.616Z,97289.06
2023-04-16T04:13:19.994Z,97295.50
2023-04-16T04:15:46.340Z,97282.19
2023-04-16T04:18:12.742Z,97302.28
2023-04-16T04:20:41.025Z,97299.66
2023-04-16T04:23:07.373Z,97288.34
2023-04-16T04:25:33.852Z,97301.47
2023-04-16T04:28:00.214Z,97311.53
2023-04-16T04:30:26.546Z,97305.63
2023-04-16T04:32:52.928Z,97307.78
2023-04-16T04:35:19.396Z,97296.22
2023-04-16T04:37:45.876Z,97292.81
2023-04-16T04:40:12.271Z,97301.59
2023-04-16T04:42:38.660Z,97311.34
2023-04-16T04:45:05.900Z,97308.59
2023-04-16T04:47:32.368Z,97320.63
2023-04-16T04:49:58.744Z,97313.03
2023-04-16T04:52:25.117Z,97321.50
2023-04-16T04:54:52.658Z,97322.81
2023-04-16T04:57:19.106Z,97326.97
2023-04-16T04:59:45.634Z,97328.88
2023-04-16T05:02:12.089Z,97336.72
2023-04-16T05:04:38.560Z,97339.75
2023-04-16T05:07:05.009Z,97354.63
2023-04-16T05:09:31.627Z,97363.69
2023-04-16T05:11:58.268Z,97368.50
2023-04-16T05:14:24.623Z,97357.66
2023-04-16T05:16:51.349Z,97366.25
2023-04-16T05:19:17.790Z,97367.13
2023-04-16T05:21:44.142Z,97381.75
2023-04-16T05:24:10.829Z,97365.50
2023-04-16T05:26:37.970Z,97373.47
2023-04-16T05:29:04.582Z,97372.25
2023-04-16T05:31:30.932Z,97386.66
2023-04-16T05:33:57.328Z,97381.00
2023-04-16T05:36:23.708Z,97375.91
2023-04-16T05:38:50.103Z,97381.75
2023-04-16T05:41:16.502Z,97383.03
2023-04-16T05:43:42.860Z,97378.69
2023-04-16T05:46:09.222Z,97390.88
2023-04-16T05:48:35.625Z,97386.81
2023-04-16T05:51:02.699Z,97404.25
2023-04-16T05:53:29.111Z,97400.13
2023-04-16T05:55:55.656Z,97402.44
2023-04-16T05:58:22.027Z,97400.63
2023-04-16T06:00:48.582Z,97397.53
2023-04-16T06:03:15.194Z,97399.63
2023-04-16T06:05:41.718Z,97401.44
2023-04-16T06:08:08.196Z,97403.75
2023-04-16T06:10:34.737Z,97397.31
2023-04-16T06:13:01.147Z,97397.38
2023-04-16T06:15:27.510Z,97408.16
2023-04-16T06:17:54.366Z,97404.56
2023-04-16T06:20:20.906Z,97407.59
2023-04-16T06:22:47.343Z,97398.31
2023-04-16T06:25:14.475Z,97393.44
2023-04-16T06:27:41.592Z,97401.88
2023-04-16T06:30:13.089Z,97406.56
2023-04-16T06:32:39.535Z,97401.69
2023-04-16T06:35:06.562Z,97404.25
2023-04-16T06:37:32.923Z,97414.75
2023-04-16T06:39:59.277Z,97417.19
2023-04-16T06:42:26.010Z,97405.81
2023-04-16T06:44:52.379Z,97408.16
2023-04-16T06:47:18.835Z,97417.66
2023-04-16T06:49:45.319Z,97412.25
2023-04-16T06:52:11.994Z,97419.44
2023-04-16T06:54:38.454Z,97419.91
2023-04-16T06:57:04.818Z,97421.69
2023-04-16T06:59:31.696Z,97415.25
2023-04-16T07:01:58.243Z,97408.25
2023-04-16T07:04:24.814Z,97410.47
2023-04-16T07:06:51.266Z,97419.53
2023-04-16T07:09:17.980Z,97416.41
2023-04-16T07:11:44.484Z,97420.25
2023-04-16T07:14:11.059Z,97421.09
2023-04-16T07:16:37.816Z,97433.69
2023-04-16T07:19:04.412Z,97419.91
2023-04-16T07:21:31.806Z,97429.72
2023-04-16T07:23:58.214Z,97435.13
2023-04-16T07:26:24.614Z,97418.06
2023-04-16T07:28:51.127Z,97422.22
2023-04-16T07:31:17.597Z,97430.19
2023-04-16T07:33:44.052Z,97421.91
2023-04-16T07:36:10.963Z,97429.72
2023-04-16T07:38:37.333Z,97441.84
2023-04-16T07:41:03.739Z,97441.56
2023-04-16T07:43:30.389Z,97422.53
2023-04-16T07:45:56.789Z,97437.41
2023-04-16T07:48:23.194Z,97434.59
2023-04-16T07:50:50.278Z,97439.94
2023-04-16T07:53:16.645Z,97435.84
2023-04-16T07:55:43.082Z,97447.97
2023-04-16T07:58:09.521Z,97435.81
2023-04-16T08:00:35.949Z,97440.97
2023-04-16T08:03:02.546Z,97443.91
2023-04-16T08:05:29.231Z,97439.53
2023-04-16T08:07:55.636Z,97446.78
2023-04-16T08:10:22.078Z,97463.47
2023-04-16T08:12:48.507Z,97457.09
2023-04-16T08:15:14.925Z,97464.38
2023-04-16T08:17:41.302Z,97450.66
2023-04-16T08:20:08.084Z,97467.97
2023-04-16T08:22:34.494Z,97469.78
2023-04-16T08:25:00.953Z,97457.22
2023-04-16T08:27:27.297Z,97472.09
2023-04-16T08:29:53.718Z,97477.00
2023-04-16T08:32:20.554Z,97473.69
2023-04-16T08:34:47.044Z,97477.81
2023-04-16T08:37:13.470Z,97484.03
2023-04-16T08:39:39.847Z,97495.19
2023-04-16T08:42:11.902Z,97501.41
2023-04-16T08:44:44.225Z,97498.28
2023-04-16T08:47:12.725Z,97498.53
2023-04-16T08:49:44.098Z,97492.53
2023-04-16T08:52:15.196Z,97490.25
2023-04-16T08:54:58.004Z,97500.53
2023-04-16T08:57:30.425Z,97488.69
2023-04-16T08:59:57.838Z,97500.00
2023-04-16T09:02:26.192Z,97509.50
2023-04-16T09:04:53.936Z,97503.91
2023-04-16T09:07:21.068Z,97515.75
2023-04-16T09:09:49.695Z,97516.53
2023-04-16T09:12:17.336Z,97508.97
2023-04-16T09:14:46.970Z,97515.19
2023-04-16T09:17:14.582Z,97520.63
2023-04-16T09:19:40.943Z,97519.25
2023-04-16T09:22:07.387Z,97517.75
2023-04-16T09:24:34.764Z,97514.56
2023-04-16T09:27:01.110Z,97509.63
2023-04-16T09:29:39.122Z,97507.81
2023-04-16T09:32:10.907Z,97522.53
2023-04-16T09:35:01.783Z,97525.06
2023-04-16T09:37:29.925Z,97526.66
2023-04-16T09:40:01.024Z,97525.41
2023-04-16T09:42:29.685Z,97524.97
2023-04-16T09:44:59.441Z,97521.59
2023-04-16T09:47:39.891Z,97538.50
2023-04-16T09:50:08.293Z,97531.25
2023-04-16T09:52:37.730Z,97540.16
2023-04-16T09:55:04.730Z,97534.09
2023-04-16T09:57:31.091Z,97540.31
2023-04-16T10:00:06.149Z,97553.25
2023-04-16T10:02:34.486Z,97553.25
2023-04-16T10:05:06.060Z,97544.50
2023-04-16T10:07:36.602Z,97559.16
2023-04-16T10:10:04.260Z,97549.53
2023-04-16T10:12:32.721Z,97561.50
2023-04-16T10:14:59.163Z,97555.34
2023-04-16T10:17:26.485Z,97562.00
2023-04-16T10:19:54.586Z,97549.78
2023-04-16T10:22:21.011Z,97557.50
2023-04-16T10:24:48.768Z,97573.84
2023-04-16T10:27:16.571Z,97570.72
2023-04-16T10:29:43.985Z,97565.38
2023-04-16T10:32:10.680Z,97570.97
2023-04-16T10:34:37.166Z,97564.06
2023-04-16T10:37:03.558Z,97577.94
2023-04-16T10:39:30.010Z,97579.31
2023-04-16T10:42:12.403Z,97581.38
2023-04-16T10:44:43.388Z,97584.22
2023-04-16T10:47:13.166Z,97572.31
2023-04-16T10:49:40.481Z,97586.38
2023-04-16T10:52:17.077Z,97567.31
2023-04-16T10:54:43.874Z,97582.91
2023-04-16T10:57:16.019Z,97589.09
2023-04-16T10:59:44.019Z,97567.84
2023-04-16T11:02:15.906Z,97573.00
2023-04-16T11:04:45.117Z,97560.66
2023-04-16T11:07:11.628Z,97581.31
2023-04-16T11:09:57.475Z,97569.97
2023-04-16T11:12:27.649Z,97582.91
2023-04-16T11:14:59.188Z,97583.91
2023-04-16T11:17:29.345Z,97572.22
2023-04-16T11:19:55.927Z,97570.72
2023-04-16T11:22:22.736Z,97561.69
2023-04-16T11:24:54.820Z,97571.91
2023-04-16T11:27:21.182Z,97566.56
2023-04-16T11:29:59.167Z,97562.16
2023-04-16T11:32:25.874Z,97573.81
2023-04-16T11:34:52.342Z,97585.91
2023-04-16T11:37:21.763Z,97580.59
2023-04-16T11:39:52.680Z,97583.28
2023-04-16T11:42:22.561Z,97579.19
2023-04-16T11:44:54.289Z,97590.50
2023-04-16T11:47:21.225Z,97594.50
2023-04-16T11:49:47.738Z,97580.81
2023-04-16T11:52:24.638Z,97592.09
2023-04-16T11:54:51.004Z,97589.94
2023-04-16T11:57:24.605Z,97595.53
2023-04-16T12:00:01.351Z,97598.47
2023-04-16T12:02:39.960Z,97585.84
2023-04-16T12:05:25.524Z,97589.88
2023-04-16T12:07:51.873Z,97590.13
2023-04-16T12:10:18.256Z,97600.09
2023-04-16T12:12:44.648Z,97590.84
2023-04-16T12:15:11.221Z,97600.34
2023-04-16T12:17:38.468Z,97603.66
2023-04-16T12:20:10.058Z,97600.78
2023-04-16T12:22:44.414Z,97605.91
2023-04-16T12:25:13.266Z,97595.38
2023-04-16T12:27:55.741Z,97602.53
2023-04-16T12:30:24.421Z,97600.25
2023-04-16T12:32:53.121Z,97594.13
2023-04-16T12:35:33.725Z,97605.50
2023-04-16T12:38:00.893Z,97602.75
2023-04-16T12:40:27.468Z,97588.22
2023-04-16T12:42:53.860Z,97599.44
2023-04-16T12:45:20.651Z,97581.97
2023-04-16T12:47:47.551Z,97581.09
2023-04-16T12:50:14.055Z,97582.53
2023-04-16T12:52:40.434Z,97603.88
2023-04-16T12:55:07.025Z,97597.94
2023-04-16T12:57:33.396Z,97598.00
2023-04-16T12:59:59.814Z,97582.88
2023-04-16T13:02:26.312Z,97587.03
2023-04-16T13:04:53.865Z,97585.59
2023-04-16T13:07:21.185Z,97590.47
2023-04-16T13:09:47.738Z,97583.25
2023-04-16T13:12:14.109Z,97584.41
2023-04-16T13:14:40.505Z,97573.84
2023-04-16T13:17:06.862Z,97589.66
2023-04-16T13:19:33.215Z,97588.56
2023-04-16T13:21:59.630Z,97585.38
2023-04-16T13:24:26.090Z,97591.16
2023-04-16T13:26:52.625Z,97596.28
2023-04-16T13:29:22.276Z,97598.00
2023-04-16T13:31:49.371Z,97611.19
2023-04-16T13:34:15.857Z,97585.78
2023-04-16T13:36:42.239Z,97601.56
2023-04-16T13:39:11.558Z,97597.47
2023-04-16T13:41:38.601Z,97606.00
2023-04-16T13:44:05.001Z,97607.88
2023-04-16T13:46:31.636Z,97596.50
2023-04-16T13:48:58.045Z,97603.50
2023-04-16T13:51:24.419Z,97594.38
2023-04-16T13:53:50.913Z,97605.06
2023-04-16T13:56:17.351Z,97606.13
2023-04-16T13:58:43.744Z,97613.81
2023-04-16T14:01:10.170Z,97605.56
2023-04-16T14:03:38.449Z,97608.63
2023-04-16T14:06:05.497Z,97604.41
2023-04-16T14:08:32.182Z,97604.09
2023-04-16T14:10:58.707Z,97601.59
2023-04-16T14:13:25.539Z,97606.44
2023-04-16T14:15:55.577Z,97614.22
2023-04-16T14:18:22.068Z,97607.97
2023-04-16T14:20:48.526Z,97599.78
2023-04-16T14:23:14.907Z,97600.94
2023-04-16T14:25:41.303Z,97607.59
2023-04-16T14:28:08.877Z,97592.56
2023-04-16T14:30:35.334Z,97603.63
2023-04-16T14:33:01.929Z,97609.78
2023-04-16T14:35:28.379Z,97607.28
2023-04-16T14:37:55.930Z,97619.81
2023-04-16T14:40:22.322Z,97613.16
2023-04-16T14:42:48.700Z,97615.28
2023-04-16T14:45:15.897Z,97609.97
2023-04-16T14:47:46.985Z,97600.63
2023-04-16T14:50:14.097Z,97618.38
2023-04-16T14:52:40.648Z,97620.50
2023-04-16T14:55:07.348Z,97604.00
2023-04-16T14:57:33.862Z,97619.41
2023-04-16T15:00:00.258Z,97608.63
2023-04-16T15:02:26.985Z,97610.66
2023-04-16T15:04:54.454Z,97622.09
2023-04-16T15:07:21.526Z,97618.25
2023-04-16T15:09:47.912Z,97621.25
2023-04-16T15:12:14.360Z,97614.31
2023-04-16T15:14:40.754Z,97613.53
2023-04-16T15:17:07.254Z,97612.47
2023-04-16T15:19:33.630Z,97619.72
2023-04-16T15:22:00.066Z,97617.69
2023-04-16T15:24:26.425Z,97623.38
2023-04-16T15:26:52.802Z,97620.50
2023-04-16T15:29:19.155Z,97622.09
2023-04-16T15:31:45.625Z,97620.56
2023-04-16T15:34:12.347Z,97628.97
2023-04-16T15:36:38.869Z,97636.28
2023-04-16T15:39:05.340Z,97628.84
2023-04-16T15:41:36.266Z,97615.94
2023-04-16T15:44:03.419Z,97617.38
2023-04-16T15:46:29.808Z,97622.53
2023-04-16T15:48:56.180Z,97627.03
2023-04-16T15:51:22.761Z,97629.03
2023-04-16T15:53:50.380Z,97627.50
2023-04-16T15:56:16.978Z,97624.03
2023-04-16T15:58:43.376Z,97629.13
2023-04-16T16:01:09.731Z,97621.75
2023-04-16T16:03:36.464Z,97638.75
2023-04-16T16:06:07.652Z,97640.03
2023-04-16T16:08:35.788Z,97626.38
2023-04-16T16:11:02.640Z,97639.75
2023-04-16T16:13:29.259Z,97635.09
2023-04-16T16:15:56.028Z,97633.94
2023-04-16T16:18:22.408Z,97648.38
2023-04-16T16:20:49.221Z,97635.56
2023-04-16T16:23:15.803Z,97658.47
2023-04-16T16:25:42.441Z,97641.44
2023-04-16T16:28:08.838Z,97658.34
2023-04-16T16:30:35.353Z,97649.00
2023-04-16T16:33:01.776Z,97658.34
2023-04-16T16:35:28.173Z,97644.19
2023-04-16T16:37:57.085Z,97655.53
2023-04-16T16:40:23.729Z,97657.28
2023-04-16T16:42:50.172Z,97647.47
2023-04-16T16:45:16.746Z,97655.53
2023-04-16T16:47:43.196Z,97647.06
2023-04-16T16:50:11.421Z,97650.34
2023-04-16T16:52:38.894Z,97644.00
2023-04-16T16:55:08.556Z,97656.97
2023-04-16T16:57:34.957Z,97657.38
2023-04-16T17:00:01.378Z,97658.78
2023-04-16T17:02:30.933Z,97660.44
2023-04-16T17:04:58.956Z,97646.75
2023-04-16T17:07:25.560Z,97662.53
2023-04-16T17:09:51.922Z,97654.81
2023-04-16T17:12:18.299Z,97669.13
2023-04-16T17:14:44.652Z,97676.94
2023-04-16T17:17:11.027Z,97676.59
2023-04-16T17:19:37.386Z,97662.16
2023-04-16T17:22:03.800Z,97672.75
2023-04-16T17:24:30.184Z,97673.38
2023-04-16T17:26:58.402Z,97681.19
2023-04-16T17:29:26.149Z,97668.00
2023-04-16T17:31:55.571Z,97679.56
2023-04-16T17:34:22.545Z,97680.81
2023-04-16T17:36:50.494Z,97682.59
2023-04-16T17:39:17.160Z,97669.19
2023-04-16T17:41:44.345Z,97667.59
2023-04-16T17:44:11.838Z,97694.03
2023-04-16T17:46:38.458Z,97685.13
2023-04-16T17:49:04.888Z,97702.44
2023-04-16T17:51:31.287Z,97690.09
2023-04-16T17:53:57.646Z,97691.19
2023-04-16T17:56:23.981Z,97693.31
2023-04-16T17:58:50.335Z,97708.09
2023-04-16T18:01:16.764Z,97700.13
2023-04-16T18:03:44.432Z,97700.75
2023-04-16T18:06:11.232Z,97706.75
2023-04-16T18:08:37.617Z,97711.66
2023-04-16T18:11:08.294Z,97705.53
2023-04-16T18:13:35.105Z,97713.66
2023-04-16T18:16:01.831Z,97717.91
2023-04-16T18:18:28.340Z,97728.03
2023-04-16T18:20:54.672Z,97711.78
2023-04-16T18:23:21.326Z,97716.47
2023-04-16T18:25:48.887Z,97732.81
2023-04-16T18:28:15.399Z,97739.81
2023-04-16T18:30:42.576Z,97729.22
2023-04-16T18:33:30.588Z,97722.66
2023-04-16T18:35:55.558Z,97723.47
2023-04-16T18:38:21.915Z,97737.88
2023-04-16T18:40:49.679Z,97744.94
2023-04-16T18:43:16.104Z,97747.03
2023-04-16T18:45:42.481Z,97752.72
2023-04-16T18:48:08.820Z,97742.88
2023-04-16T18:50:35.227Z,97751.63
2023-04-16T18:53:01.640Z,97755.84
2023-04-16T18:55:28.700Z,97759.69
2023-04-16T18:57:55.185Z,97741.38
2023-04-16T19:00:21.651Z,97769.53
2023-04-16T19:02:48.152Z,97743.97
2023-04-16T19:05:14.597Z,97751.56
2023-04-16T19:07:41.716Z,97741.38
2023-04-16T19:10:08.665Z,97746.09
2023-04-16T19:12:35.008Z,97754.66
2023-04-16T19:15:01.359Z,97758.63
2023-04-16T19:17:27.771Z,97742.94
2023-04-16T19:19:54.149Z,97758.19
2023-04-16T19:22:20.540Z,97749.22
2023-04-16T19:24:46.926Z,97763.72
2023-04-16T19:27:13.306Z,97765.31
2023-04-16T19:29:40.816Z,97758.69
2023-04-16T19:32:07.311Z,97767.44
2023-04-16T19:34:33.760Z,97756.56
2023-04-16T19:37:00.440Z,97766.13
2023-04-16T19:39:27.949Z,97773.50
2023-04-16T19:41:54.310Z,97773.28
2023-04-16T19:44:23.041Z,97769.19
2023-04-16T19:46:49.433Z,97764.31
2023-04-16T19:49:16.001Z,97767.72
2023-04-16T19:51:42.375Z,97757.66
2023-04-16T19:54:09.016Z,97768.50
2023-04-16T19:56:35.781Z,97758.19
2023-04-16T19:59:02.442Z,97759.94
2023-04-16T20:01:30.712Z,97759.66
2023-04-16T20:03:57.178Z,97765.63
2023-04-16T20:06:24.028Z,97773.25
2023-04-16T20:08:50.438Z,97759.63
2023-04-16T20:11:17.628Z,97753.94
2023-04-16T20:13:47.706Z,97766.13
2023-04-16T20:16:14.551Z,97762.56
2023-04-16T20:18:41.480Z,97758.44
2023-04-16T20:21:09.037Z,97766.47
2023-04-16T20:23:35.639Z,97761.31
2023-04-16T20:26:02.130Z,97759.47
2023-04-16T20:28:28.468Z,97748.94
2023-04-16T20:30:54.870Z,97762.63
2023-04-16T20:33:21.342Z,97756.19
2023-04-16T20:35:47.779Z,97761.88
2023-04-16T20:38:14.149Z,97758.97
2023-04-16T20:40:40.515Z,97748.94
2023-04-16T20:43:10.133Z,97754.56
2023-04-16T20:45:40.840Z,97750.66
2023-04-16T20:48:07.883Z,97748.41
2023-04-16T20:50:34.327Z,97748.84
2023-04-16T20:53:00.760Z,97745.72
2023-04-16T20:55:27.334Z,97741.38
2023-04-16T20:57:53.695Z,97754.53
2023-04-16T21:00:20.341Z,97743.97
2023-04-16T21:02:46.812Z,97747.56
2023-04-16T21:05:16.223Z,97738.50
2023-04-16T21:07:43.078Z,97752.66
2023-04-16T21:10:10.759Z,97741.91
2023-04-16T21:12:37.237Z,97745.53
2023-04-16T21:15:04.624Z,97744.22
2023-04-16T21:17:31.650Z,97739.00
2023-04-16T21:19:58.341Z,97754.28
2023-04-16T21:22:24.740Z,97743.97
2023-04-16T21:24:51.066Z,97743.66
2023-04-16T21:27:17.535Z,97749.09
2023-04-16T21:29:43.887Z,97732.88
2023-04-16T21:32:10.270Z,97756.09
2023-04-16T21:34:36.614Z,97751.94
2023-04-16T21:37:03.643Z,97757.59
2023-04-16T21:39:30.915Z,97750.16
2023-04-16T21:41:57.658Z,97756.34
2023-04-16T21:44:24.123Z,97754.56
2023-04-16T21:46:51.030Z,97752.53
2023-04-16T21:49:17.413Z,97753.53
2023-04-16T21:51:45.960Z,97751.44
2023-04-16T21:54:12.846Z,97752.25
2023-04-16T21:56:39.213Z,97752.03
2023-04-16T21:59:05.564Z,97754.03
2023-04-16T22:01:32.000Z,97754.84
2023-04-16T22:03:58.519Z,97755.94
2023-04-16T22:06:26.000Z,97751.78
2023-04-16T22:08:53.396Z,97767.56
2023-04-16T22:11:19.782Z,97765.16
2023-04-16T22:13:47.789Z,97770.97
2023-04-16T22:16:14.341Z,97766.31
2023-04-16T22:18:40.953Z,97750.59
2023-04-16T22:21:07.341Z,97769.41
2023-04-16T22:23:33.776Z,97762.47
2023-04-16T22:26:00.171Z,97756.50
2023-04-16T22:28:27.166Z,97763.00
2023-04-16T22:30:53.587Z,97761.44
2023-04-16T22:33:20.268Z,97756.19
2023-04-16T22:35:46.646Z,97754.16
2023-04-16T22:38:13.154Z,97761.72
2023-04-16T22:40:39.512Z,97765.84
2023-04-16T22:43:06.097Z,97748.03
2023-04-16T22:45:32.440Z,97747.31
2023-04-16T22:47:58.862Z,97745.22
2023-04-16T22:50:25.371Z,97753.22
2023-04-16T22:52:51.724Z,97753.22
2023-04-16T22:55:18.202Z,97748.63
2023-04-16T22:57:44.565Z,97741.78
2023-04-16T23:00:15.793Z,97758.13
2023-04-16T23:02:42.915Z,97751.16
2023-04-16T23:05:09.509Z,97745.00
2023-04-16T23:07:36.050Z,97755.03
2023-04-16T23:10:02.443Z,97747.53
2023-04-16T23:12:28.810Z,97755.28
2023-04-16T23:14:55.301Z,97750.88
2023-04-16T23:17:21.646Z,97756.34
2023-04-16T23:19:47.986Z,97755.34
2023-04-16T23:22:14.340Z,97756.38
2023-04-16T23:24:40.724Z,97758.69
2023-04-16T23:27:07.093Z,97746.59
2023-04-16T23:29:33.441Z,97756.09
2023-04-16T23:31:59.857Z,97742.00
2023-04-16T23:34:26.400Z,97748.44
2023-04-16T23:36:52.744Z,97745.34
2023-04-16T23:39:19.163Z,97744.56
2023-04-16T23:41:45.699Z,97755.91
2023-04-16T23:44:12.058Z,97742.78
2023-04-16T23:46:39.205Z,97754.06
2023-04-16T23:49:05.781Z,97758.19
2023-04-16T23:51:32.141Z,97745.59
2023-04-16T23:53:58.515Z,97744.31
2023-04-16T23:56:24.937Z,97747.44
2023-04-16T23:58:51.298Z,97747.16
